• Join FlightAware (Why Join?)
  • Login
  • US Flag 
04:40AM EDT


 

Airport Tracker/Info


-or-


 

Live Flight TrackerFlight Track Log ✈ TMC855 ✈ 26-Apr-2013 ✈ KTEB - KRDU

Flight Track Log - Related Links

Times and Time Zones

All times are in EDT time to prevent confusion due to time zone crossing. See the TMC855 flight status page for this flight to view local times or setup timezone preferences in your user account.

Time Position Orientation Groundspeed Altitude Reporting Facility
EDT Latitude Longitude Course Direction KTS MPH feet Rate Location/Type
04:11PM 40.8167 -74.1500 218° Southwest 228 262 1,600  Level New York TRACON
04:12PM 40.8167 -74.2333 270° West 246 283 4,900 2,040 Climbing New York TRACON
04:13PM 40.7500 -74.3167 223° Southwest 284 327 6,000 1,380 Climbing New York TRACON
04:14PM 40.6667 -74.3000 171° South 261 300 7,900 2,940 Climbing New York TRACON
04:15PM 40.6000 -74.2833 169° South 274 315 11,900 3,600 Climbing New York TRACON
04:16PM 40.4374 -74.4866 218° Southwest  Level Estimated
04:16PM 40.5333 -74.3333 210° Southwest 287 330 15,200  Level New York TRACON
04:17PM 40.4667 -74.2667 143° Southeast 343 395 17,000 900 Climbing New York TRACON
04:18PM 40.4167 -74.1667 123° Southeast 349 402 17,000  Level New York TRACON
04:19PM 40.3433 -74.1178 153° Southeast 351 404 17,000  Level New York Center
04:20PM 40.2739 -74.0653 150° Southeast 342 394 17,000  Level New York Center
04:21PM 40.1858 -74.0828 189° South 296 341 17,000 420 Level New York Center
04:22PM 40.1153 -74.1528 217° Southwest 319 367 17,900 1,020 Climbing New York Center
04:22PM 40.0803 -74.1842 214° Southwest 334 384 18,500 2,040 Climbing Washington Center
04:23PM 39.9875 -74.2675 215° Southwest 353 406 20,800 2,460 Climbing Washington Center
04:24PM 39.9028 -74.3500 217° Southwest 372 428 23,400 1,740 Climbing Washington Center
04:25PM 39.8161 -74.4300 215° Southwest 384 442 24,400 1,140 Climbing Washington Center
04:26PM 39.7381 -74.5364 226° Southwest 396 456 25,800 780 Climbing Washington Center
04:27PM 39.6556 -74.6456 226° Southwest 412 474 26,000 60 Climbing Washington Center
04:28PM 39.5792 -74.7489 226° Southwest 412 474 26,000  Level Washington Center
04:29PM 39.5008 -74.8467 224° Southwest 402 463 26,000  Level Washington Center
04:30PM 39.4242 -74.9494 226° Southwest 402 463 26,000  Level Washington Center
04:31PM 39.3497 -75.0494 226° Southwest 397 457 26,000  Level Washington Center
04:32PM 39.2708 -75.1467 224° Southwest 397 457 26,000  Level Washington Center
04:33PM 39.1961 -75.2514 227° Southwest 397 457 26,000  Level Washington Center
04:34PM 39.1172 -75.3508 224° Southwest 397 457 26,000  Level Washington Center
04:35PM 39.0425 -75.4500 226° Southwest 397 457 26,000  Level Washington Center
04:36PM 38.9653 -75.5436 223° Southwest 392 451 26,000  Level Washington Center
04:37PM 38.8967 -75.6422 228° Southwest 379 436 26,000  Level Washington Center
04:38PM 38.8547 -75.7597 245° Southwest 359 413 26,000  Level Washington Center
04:39PM 38.8172 -75.8714 247° West 359 413 26,000  Level Washington Center
04:40PM 38.7542 -75.9669 230° Southwest 354 407 26,000  Level Washington Center
04:41PM 38.6706 -76.0436 216° Southwest 354 407 26,000  Level Washington Center
04:42PM 38.5911 -76.1228 218° Southwest 366 421 26,000  Level Washington Center
04:43PM 38.5011 -76.2044 215° Southwest 379 436 26,000  Level Washington Center
04:44PM 38.4194 -76.2808 216° Southwest 385 443 26,000  Level Washington Center
04:45PM 38.3356 -76.3567 215° Southwest 385 443 26,000  Level Washington Center
04:46PM 38.2600 -76.4353 219° Southwest 378 435 26,000  Level Washington Center
04:47PM 38.1944 -76.5297 229° Southwest 363 418 26,000  Level Washington Center
04:48PM 38.1250 -76.6264 228° Southwest 363 418 26,000  Level Washington Center
04:49PM 38.0575 -76.7206 228° Southwest 369 425 26,000 -300 Level Washington Center
04:50PM 37.9628 -76.7900 210° Southwest 369 425 25,400 -660 Descending Washington Center
04:51PM 37.8581 -76.8436 202° Southwest 391 450 24,700 -720 Descending Washington Center
04:52PM 37.7572 -76.8972 203° Southwest 397 457 24,000 -780 Descending Washington Center
04:53PM 37.6503 -76.9506 202° Southwest 407 468 23,200 -960 Descending Washington Center
04:54PM 37.5517 -77.0036 203° Southwest 401 461 22,200 -600 Descending Washington Center
04:55PM 37.4594 -77.0492 201° Southwest 393 452 22,000 -120 Descending Washington Center
04:56PM 37.3567 -77.1019 202° Southwest 376 433 22,000  Level Washington Center
04:57PM 37.2850 -77.1503 208° Southwest 368 423 22,000  Level Washington Center
04:58PM 37.1903 -77.2136 208° Southwest 358 412 22,000  Level Washington Center
04:59PM 37.1061 -77.2717 209° Southwest 353 406 22,000 -240 Level Washington Center
05:00PM 37.0239 -77.3297 209° Southwest 353 406 21,600 -780 Descending Washington Center
05:01PM 36.9375 -77.3900 209° Southwest 353 406 20,500 -1,200 Descending Washington Center
05:02PM 36.8425 -77.4553 209° Southwest 359 413 19,300 -1,200 Descending Washington Center
05:03PM 36.7583 -77.5103 208° Southwest 353 406 18,200 -840 Descending Washington Center
05:04PM 36.6803 -77.5681 211° Southwest 348 400 17,600 -840 Descending Washington Center
05:05PM 36.5978 -77.6256 209° Southwest 348 400 16,600 -1,080 Descending Washington Center
05:06PM 36.5178 -77.6775 208° Southwest 338 389 15,500 -1,080 Descending Washington Center
05:07PM 36.4394 -77.7297 208° Southwest 332 382 14,500 -1,080 Descending Washington Center
05:08PM 36.3656 -77.7869 212° Southwest 327 376 13,400 -1,080 Descending Washington Center
05:09PM 36.3139 -77.8733 233° Southwest 305 351 12,400 -840 Descending Washington Center
05:10PM 36.2792 -77.9367 236° Southwest 298 343 12,000 -240 Descending Washington Center
05:11PM 36.2378 -78.0281 241° Southwest 282 325 12,000  Level Washington Center
05:12PM 36.1897 -78.1269 239° Southwest 301 346 12,000  Level Washington Center
05:13PM 36.1461 -78.2156 239° Southwest 313 360 12,000 -240 Level Washington Center
05:14PM 36.1022 -78.3067 239° Southwest 310 357 11,600 -1,140 Descending Washington Center
05:15PM 36.0606 -78.3978 241° Southwest 292 336 9,600 -1,740 Descending Washington Center
05:16PM 36.0233 -78.4683 237° Southwest 244 281 8,100 -840 Descending Washington Center
05:17PM 35.9947 -78.5392 243° Southwest 251 289 8,000 -60 Descending Washington Center
05:18PM 35.9472 -78.5992 226° Southwest 228 262 8,000  Level Washington Center
05:19PM 35.9022 -78.6461 220° Southwest 233 268 8,000 -120 Level Washington Center
05:20PM 35.8508 -78.6953 218° Southwest 235 270 7,800 -1,020 Descending Washington Center
05:21PM 35.8014 -78.7497 222° Southwest 236 272 6,000 -1,860 Descending Washington Center
05:22PM 35.7539 -78.8067 224° Southwest 228 262 4,100 -1,200 Descending Washington Center
05:23PM 35.7567 -78.8606 274° West 194 223 3,800 -1,140 Descending Washington Center
05:24PM 35.8131 -78.8603 360° North 198 228 1,900 -1,440 Descending Washington Center
05:25PM 35.8453 -78.8233 43° Northeast 143 165 1,000 -960 Descending Washington Center
05:27PM 35.8667 -78.7833 North  Level FlightAware Approximate
05:34PM 35.8776 -78.7875 North  Level Estimated